createdAt,value
2017-01-06T00:00:01.324Z,729.85
2017-01-06T00:01:01.296Z,729.85
2017-01-06T00:02:01.267Z,729.91
2017-01-06T00:03:01.233Z,729.89
2017-01-06T00:04:01.203Z,729.92
2017-01-06T00:05:01.177Z,729.89
2017-01-06T00:06:01.147Z,729.91
2017-01-06T00:07:01.117Z,729.96
2017-01-06T00:08:01.084Z,729.93
2017-01-06T00:09:01.055Z,730.02
2017-01-06T00:10:01.025Z,730
2017-01-06T00:11:00.997Z,730
2017-01-06T00:12:00.968Z,730
2017-01-06T00:13:00.936Z,730
2017-01-06T00:14:00.905Z,729.98
2017-01-06T00:15:00.876Z,730
2017-01-06T00:16:00.847Z,729.92
2017-01-06T00:17:00.818Z,729.97
2017-01-06T00:18:00.787Z,729.94
2017-01-06T00:19:00.762Z,729.98
2017-01-06T00:20:00.728Z,729.97
2017-01-06T00:21:00.703Z,729.95
2017-01-06T00:22:00.673Z,730.01
2017-01-06T00:23:00.641Z,730
2017-01-06T00:24:00.611Z,730.01
2017-01-06T00:25:00.584Z,730
2017-01-06T00:26:00.555Z,729.96
2017-01-06T00:27:00.525Z,730
2017-01-06T00:28:00.496Z,730
2017-01-06T00:29:00.465Z,729.99
2017-01-06T00:30:00.433Z,729.99
2017-01-06T00:31:00.403Z,730.02
2017-01-06T00:32:00.377Z,730.04
2017-01-06T00:33:00.343Z,730.04
2017-01-06T00:34:00.313Z,730.04
2017-01-06T00:35:00.286Z,730.08
2017-01-06T00:36:00.255Z,730.06
2017-01-06T00:37:00.226Z,730.1
2017-01-06T00:38:00.195Z,730.06
2017-01-06T00:39:00.162Z,730.01
2017-01-06T00:40:00.134Z,730.04
2017-01-06T00:41:00.101Z,730.02
2017-01-06T00:42:00.071Z,730.01
2017-01-06T00:43:00.041Z,730.05
2017-01-06T00:44:00.010Z,730.03
2017-01-06T00:44:59.980Z,730.03
2017-01-06T00:45:59.951Z,730.09
2017-01-06T00:46:59.922Z,730.04
2017-01-06T00:47:59.892Z,730
2017-01-06T00:48:59.862Z,730
2017-01-06T00:49:59.832Z,730.04
2017-01-06T00:50:59.801Z,730.01
2017-01-06T00:51:59.766Z,730.04
2017-01-06T00:53:59.710Z,730.03
2017-01-06T00:54:59.675Z,730.09
2017-01-06T00:55:59.648Z,730.09
2017-01-06T00:56:59.613Z,730.1
2017-01-06T00:57:59.583Z,730.09
2017-01-06T00:58:59.552Z,730.1
2017-01-06T00:59:59.522Z,730.05
2017-01-06T01:00:59.495Z,730.05
2017-01-06T01:01:59.460Z,730.08
2017-01-06T01:02:59.430Z,730.12
2017-01-06T01:03:59.402Z,730.19
2017-01-06T01:04:59.372Z,730.14
2017-01-06T01:05:59.338Z,730.18
2017-01-06T01:06:59.311Z,730.21
2017-01-06T01:07:59.281Z,730.17
2017-01-06T01:08:59.250Z,730.19
2017-01-06T01:09:59.219Z,730.16
2017-01-06T01:10:59.186Z,730.16
2017-01-06T01:11:59.156Z,730.16
2017-01-06T01:12:59.124Z,730.17
2017-01-06T01:13:59.097Z,730.23
2017-01-06T01:14:59.064Z,730.2
2017-01-06T01:15:59.033Z,730.14
2017-01-06T01:16:59.003Z,730.17
2017-01-06T01:17:58.972Z,730.13
2017-01-06T01:18:58.942Z,730.17
2017-01-06T01:19:58.911Z,730.21
2017-01-06T01:20:58.881Z,730.15
2017-01-06T01:21:58.854Z,730.2
2017-01-06T01:22:58.824Z,730.17
2017-01-06T01:23:58.790Z,730.25
2017-01-06T01:24:58.766Z,730.22
2017-01-06T01:25:58.733Z,730.19
2017-01-06T01:26:58.701Z,730.22
2017-01-06T01:27:58.672Z,730.16
2017-01-06T01:28:58.639Z,730.24
2017-01-06T01:29:58.612Z,730.25
2017-01-06T01:30:58.578Z,730.27
2017-01-06T01:31:58.549Z,730.22
2017-01-06T01:32:58.519Z,730.24
2017-01-06T01:33:58.694Z,730.21
2017-01-06T01:34:58.458Z,730.24
2017-01-06T01:35:58.432Z,730.2
2017-01-06T01:36:58.399Z,730.28
2017-01-06T01:37:58.373Z,730.27
2017-01-06T01:38:58.342Z,730.25
2017-01-06T01:39:58.309Z,730.25
2017-01-06T01:40:58.278Z,730.23
2017-01-06T01:41:58.252Z,730.19
2017-01-06T01:42:58.223Z,730.15
2017-01-06T01:43:58.193Z,730.16
2017-01-06T01:44:58.160Z,730.19
2017-01-06T01:45:58.130Z,730.19
2017-01-06T01:46:58.104Z,730.18
2017-01-06T01:47:58.074Z,730.17
2017-01-06T01:48:58.047Z,730.16
2017-01-06T01:49:58.014Z,730.21
2017-01-06T01:50:57.981Z,730.12
2017-01-06T01:51:57.955Z,730.17
2017-01-06T01:52:57.921Z,730.17
2017-01-06T01:53:57.895Z,730.15
2017-01-06T01:54:57.862Z,730.2
2017-01-06T01:55:57.836Z,730.12
2017-01-06T01:56:57.802Z,730.18
2017-01-06T01:57:57.776Z,730.14
2017-01-06T01:58:57.745Z,730.18
2017-01-06T01:59:57.711Z,730.12
2017-01-06T02:00:57.684Z,730.2
2017-01-06T02:01:57.651Z,730.21
2017-01-06T02:02:57.621Z,730.22
2017-01-06T02:03:57.590Z,730.17
2017-01-06T02:04:57.562Z,730.24
2017-01-06T02:05:57.532Z,730.16
2017-01-06T02:06:57.499Z,730.19
2017-01-06T02:07:57.471Z,730.16
2017-01-06T02:08:57.440Z,730.15
2017-01-06T02:09:57.407Z,730.16
2017-01-06T02:10:57.379Z,730.17
2017-01-06T02:11:57.345Z,730.12
2017-01-06T02:12:57.319Z,730.19
2017-01-06T02:13:57.288Z,730.16
2017-01-06T02:14:57.253Z,730.11
2017-01-06T02:15:57.226Z,730.11
2017-01-06T02:16:57.197Z,730.15
2017-01-06T02:17:57.162Z,730.19
2017-01-06T02:18:57.131Z,730.21
2017-01-06T02:19:57.100Z,730.17
2017-01-06T02:20:57.070Z,730.19
2017-01-06T02:21:57.041Z,730.15
2017-01-06T02:22:57.008Z,730.18
2017-01-06T02:23:56.977Z,730.17
2017-01-06T02:24:56.950Z,730.19
2017-01-06T02:25:56.915Z,730.18
2017-01-06T02:26:56.884Z,730.16
2017-01-06T02:27:56.854Z,730.17
2017-01-06T02:28:56.826Z,730.15
2017-01-06T02:29:56.792Z,730.21
2017-01-06T02:30:56.761Z,730.15
2017-01-06T02:31:56.729Z,730.13
2017-01-06T02:32:56.699Z,730.16
2017-01-06T02:33:56.668Z,730.16
2017-01-06T02:34:56.637Z,730.2
2017-01-06T02:35:56.610Z,730.21
2017-01-06T02:36:56.575Z,730.18
2017-01-06T02:37:56.548Z,730.17
2017-01-06T02:38:56.514Z,730.23
2017-01-06T02:39:56.487Z,730.18
2017-01-06T02:40:56.453Z,730.23
2017-01-06T02:41:56.423Z,730.2
2017-01-06T02:42:56.396Z,730.23
2017-01-06T02:43:56.364Z,730.21
2017-01-06T02:44:56.330Z,730.18
2017-01-06T02:45:56.300Z,730.2
2017-01-06T02:46:56.273Z,730.15
2017-01-06T02:47:56.238Z,730.22
2017-01-06T02:48:56.208Z,730.14
2017-01-06T02:49:56.180Z,730.22
2017-01-06T02:50:56.146Z,730.25
2017-01-06T02:51:56.116Z,730.19
2017-01-06T02:52:56.086Z,730.19
2017-01-06T02:53:56.055Z,730.2
2017-01-06T02:54:56.027Z,730.25
2017-01-06T02:55:55.997Z,730.22
2017-01-06T02:56:55.967Z,730.2
2017-01-06T02:57:55.937Z,730.17
2017-01-06T02:58:55.902Z,730.19
2017-01-06T02:59:55.875Z,730.15
2017-01-06T03:00:55.840Z,730.2
2017-01-06T03:01:55.810Z,730.19
2017-01-06T03:02:55.781Z,730.21
2017-01-06T03:03:55.753Z,730.27
2017-01-06T03:04:55.719Z,730.26
2017-01-06T03:05:55.688Z,730.28
2017-01-06T03:06:55.660Z,730.24
2017-01-06T03:07:55.630Z,730.22
2017-01-06T03:08:55.597Z,730.23
2017-01-06T03:09:55.569Z,730.21
2017-01-06T03:10:55.539Z,730.22
2017-01-06T03:11:55.505Z,730.22
2017-01-06T03:12:55.477Z,730.19
2017-01-06T03:13:55.448Z,730.17
2017-01-06T03:14:55.416Z,730.19
2017-01-06T03:15:55.384Z,730.16
2017-01-06T03:16:55.357Z,730.17
2017-01-06T03:17:55.323Z,730.14
2017-01-06T03:18:55.293Z,730.12
2017-01-06T03:19:55.263Z,730.21
2017-01-06T03:20:55.235Z,730.22
2017-01-06T03:21:55.202Z,730.14
2017-01-06T03:22:55.172Z,730.2
2017-01-06T03:23:55.141Z,730.24
2017-01-06T03:24:55.114Z,730.23
2017-01-06T03:25:55.081Z,730.22
2017-01-06T03:26:55.054Z,730.2
2017-01-06T03:27:55.023Z,730.21
2017-01-06T03:28:54.993Z,730.15
2017-01-06T03:29:54.959Z,730.16
2017-01-06T03:30:54.929Z,730.12
2017-01-06T03:31:54.898Z,730.12
2017-01-06T03:32:54.871Z,730.14
2017-01-06T03:33:54.841Z,730.09
2017-01-06T03:34:54.807Z,730.09
2017-01-06T03:35:54.776Z,730.09
2017-01-06T03:36:54.749Z,730.09
2017-01-06T03:37:54.719Z,730.13
2017-01-06T03:38:54.684Z,730.18
2017-01-06T03:39:54.657Z,730.15
2017-01-06T03:40:54.623Z,730.18
2017-01-06T03:41:54.596Z,730.17
2017-01-06T03:42:54.562Z,730.14
2017-01-06T03:43:54.535Z,730.14
2017-01-06T03:44:54.504Z,730.13
2017-01-06T03:45:54.470Z,730.18
2017-01-06T03:46:54.442Z,730.07
2017-01-06T03:47:54.409Z,730.09
2017-01-06T03:48:54.379Z,730
2017-01-06T03:49:54.351Z,730.08
2017-01-06T03:50:54.320Z,730.04
2017-01-06T03:51:54.287Z,730.01
2017-01-06T03:52:54.257Z,730
2017-01-06T03:53:54.229Z,730
2017-01-06T03:54:54.198Z,730.04
2017-01-06T03:55:54.170Z,730.07
2017-01-06T03:56:54.137Z,730.01
2017-01-06T03:57:54.104Z,730.04
2017-01-06T03:58:54.075Z,730.04
2017-01-06T03:59:54.043Z,730.04
2017-01-06T04:00:54.015Z,729.96
2017-01-06T04:01:53.982Z,729.94
2017-01-06T04:02:53.951Z,729.98
2017-01-06T04:03:53.921Z,730.04
2017-01-06T04:04:53.890Z,730.06
2017-01-06T04:05:53.859Z,730.01
2017-01-06T04:06:53.829Z,730.06
2017-01-06T04:07:53.798Z,730.05
2017-01-06T04:08:53.771Z,730.1
2017-01-06T04:09:53.737Z,730.11
2017-01-06T04:10:53.710Z,730.12
2017-01-06T04:11:53.676Z,730.12
2017-01-06T04:12:53.646Z,730.1
2017-01-06T04:13:53.619Z,730.13
2017-01-06T04:14:53.589Z,730.16
2017-01-06T04:15:53.559Z,730.18
2017-01-06T04:16:53.529Z,730.17
2017-01-06T04:17:53.499Z,730.17
2017-01-06T04:18:53.466Z,730.17
2017-01-06T04:19:53.435Z,730.16
2017-01-06T04:20:53.408Z,730.21
2017-01-06T04:21:53.379Z,730.22
2017-01-06T04:22:53.345Z,730.22
2017-01-06T04:23:53.315Z,730.24
2017-01-06T04:24:53.285Z,730.2
2017-01-06T04:25:53.255Z,730.23
2017-01-06T04:26:53.224Z,730.18
2017-01-06T04:27:53.198Z,730.21
2017-01-06T04:28:53.165Z,730.16
2017-01-06T04:29:53.137Z,730.18
2017-01-06T04:30:53.104Z,730.21
2017-01-06T04:31:53.080Z,730.16
2017-01-06T04:32:53.048Z,730.18
2017-01-06T04:33:53.014Z,730.2
2017-01-06T04:34:52.983Z,730.14
2017-01-06T04:35:52.957Z,730.14
2017-01-06T04:36:52.926Z,730.17
2017-01-06T04:37:52.896Z,730.2
2017-01-06T04:38:52.863Z,730.19
2017-01-06T04:39:52.836Z,730.2
2017-01-06T04:40:52.805Z,730.15
2017-01-06T04:41:52.772Z,730.17
2017-01-06T04:42:52.745Z,730.15
2017-01-06T04:43:52.715Z,730.1
2017-01-06T04:44:52.684Z,730.13
2017-01-06T04:45:52.654Z,730.1
2017-01-06T04:46:52.624Z,730.08
2017-01-06T04:47:52.595Z,730.05
2017-01-06T04:48:52.559Z,730.06
2017-01-06T04:49:52.529Z,730.13
2017-01-06T04:50:52.502Z,730.07
2017-01-06T04:51:52.467Z,730.1
2017-01-06T04:52:52.438Z,730.11
2017-01-06T04:53:52.409Z,730.09
2017-01-06T04:54:52.376Z,730.08
2017-01-06T04:55:52.347Z,730.08
2017-01-06T04:56:52.313Z,730.09
2017-01-06T04:57:52.287Z,730.06
2017-01-06T04:58:52.252Z,730.09
2017-01-06T04:59:52.225Z,730.08
2017-01-06T05:00:52.191Z,730.09
2017-01-06T05:01:52.164Z,730.04
2017-01-06T05:02:52.130Z,730.12
2017-01-06T05:03:52.102Z,730.11
2017-01-06T05:04:52.068Z,730.16
2017-01-06T05:05:52.041Z,730.18
2017-01-06T05:06:52.009Z,730.22
2017-01-06T05:07:51.975Z,730.21
2017-01-06T05:08:51.948Z,730.28
2017-01-06T05:09:51.916Z,730.26
2017-01-06T05:10:51.882Z,730.28
2017-01-06T05:11:51.855Z,730.32
2017-01-06T05:12:51.821Z,730.34
2017-01-06T05:13:51.789Z,730.32
2017-01-06T05:14:51.762Z,730.35
2017-01-06T05:15:51.728Z,730.38
2017-01-06T05:16:51.697Z,730.42
2017-01-06T05:17:51.665Z,730.37
2017-01-06T05:18:51.644Z,730.38
2017-01-06T05:19:51.607Z,730.3
2017-01-06T05:20:51.572Z,730.37
2017-01-06T05:21:51.541Z,730.34
2017-01-06T05:22:51.511Z,730.27
2017-01-06T05:23:51.483Z,730.28
2017-01-06T05:24:51.449Z,730.25
2017-01-06T05:25:51.422Z,730.25
2017-01-06T05:26:51.391Z,730.25
2017-01-06T05:27:51.360Z,730.31
2017-01-06T05:28:51.328Z,730.25
2017-01-06T05:29:51.295Z,730.3
2017-01-06T05:30:51.264Z,730.29
2017-01-06T05:31:51.233Z,730.27
2017-01-06T05:32:51.202Z,730.29
2017-01-06T05:33:51.175Z,730.26
2017-01-06T05:34:51.144Z,730.24
2017-01-06T05:35:51.113Z,730.24
2017-01-06T05:36:51.082Z,730.25
2017-01-06T05:37:51.051Z,730.25
2017-01-06T05:38:51.018Z,730.25
2017-01-06T05:39:50.990Z,730.27
2017-01-06T05:40:50.958Z,730.27
2017-01-06T05:41:50.924Z,730.3
2017-01-06T05:42:50.896Z,730.32
2017-01-06T05:43:50.865Z,730.33
2017-01-06T05:44:50.831Z,730.28
2017-01-06T05:45:50.800Z,730.26
2017-01-06T05:46:50.767Z,730.27
2017-01-06T05:47:50.737Z,730.24
2017-01-06T05:48:50.709Z,730.32
2017-01-06T05:49:50.677Z,730.31
2017-01-06T05:50:50.646Z,730.32
2017-01-06T05:51:50.615Z,730.37
2017-01-06T05:52:50.584Z,730.36
2017-01-06T05:53:50.552Z,730.35
2017-01-06T05:54:50.517Z,730.42
2017-01-06T05:55:50.489Z,730.49
2017-01-06T05:56:50.455Z,730.39
2017-01-06T05:57:50.426Z,730.5
2017-01-06T05:58:50.394Z,730.46
2017-01-06T05:59:50.360Z,730.52
2017-01-06T06:00:50.327Z,730.48
2017-01-06T06:01:50.296Z,730.48
2017-01-06T06:02:50.265Z,730.48
2017-01-06T06:03:50.237Z,730.52
2017-01-06T06:04:50.204Z,730.53
2017-01-06T06:05:50.170Z,730.56
2017-01-06T06:06:50.139Z,730.5
2017-01-06T06:07:50.111Z,730.5
2017-01-06T06:08:50.079Z,730.55
2017-01-06T06:09:50.044Z,730.53
2017-01-06T06:10:50.013Z,730.57
2017-01-06T06:11:49.980Z,730.56
2017-01-06T06:12:49.948Z,730.56
2017-01-06T06:13:49.917Z,730.6
2017-01-06T06:14:49.885Z,730.62
2017-01-06T06:15:49.856Z,730.59
2017-01-06T06:16:49.824Z,730.61
2017-01-06T06:17:49.792Z,730.63
2017-01-06T06:18:49.758Z,730.64
2017-01-06T06:19:49.728Z,730.68
2017-01-06T06:20:49.693Z,730.71
2017-01-06T06:21:49.661Z,730.72
2017-01-06T06:22:49.630Z,730.7
2017-01-06T06:23:49.600Z,730.7
2017-01-06T06:24:49.569Z,730.75
2017-01-06T06:25:49.533Z,730.76
2017-01-06T06:26:49.499Z,730.77
2017-01-06T06:27:49.471Z,730.74
2017-01-06T06:28:49.435Z,730.75
2017-01-06T06:29:49.404Z,730.75
2017-01-06T06:30:49.374Z,730.71
2017-01-06T06:31:49.342Z,730.68
2017-01-06T06:32:49.309Z,730.71
2017-01-06T06:33:49.276Z,730.71
2017-01-06T06:34:49.244Z,730.74
2017-01-06T06:35:49.209Z,730.73
2017-01-06T06:36:49.177Z,730.76
2017-01-06T06:37:49.147Z,730.77
2017-01-06T06:38:49.115Z,730.73
2017-01-06T06:39:49.079Z,730.75
2017-01-06T06:40:49.048Z,730.8
2017-01-06T06:41:49.014Z,730.79
2017-01-06T06:42:48.985Z,730.82
2017-01-06T06:43:48.950Z,730.86
2017-01-06T06:44:48.917Z,730.94
2017-01-06T06:45:48.887Z,730.87
2017-01-06T06:46:48.856Z,730.97
2017-01-06T06:47:48.824Z,730.94
2017-01-06T06:48:48.791Z,730.97
2017-01-06T06:49:48.759Z,730.97
2017-01-06T06:50:48.724Z,730.89
2017-01-06T06:51:48.692Z,730.92
2017-01-06T06:52:48.662Z,730.89
2017-01-06T06:53:48.630Z,730.95
2017-01-06T06:54:48.595Z,730.93
2017-01-06T06:55:48.565Z,730.95
2017-01-06T06:56:48.533Z,730.9
2017-01-06T06:57:48.501Z,730.96
2017-01-06T06:58:48.466Z,730.91
2017-01-06T06:59:48.436Z,730.96
2017-01-06T07:00:48.404Z,730.85
2017-01-06T07:01:48.369Z,730.92
2017-01-06T07:02:48.340Z,730.9
2017-01-06T07:03:48.306Z,730.98
2017-01-06T07:04:48.271Z,730.99
2017-01-06T07:05:48.242Z,731
2017-01-06T07:06:48.209Z,730.99
2017-01-06T07:07:48.174Z,731
2017-01-06T07:08:48.142Z,730.95
2017-01-06T07:09:48.113Z,730.96
2017-01-06T07:10:48.076Z,730.94
2017-01-06T07:11:48.047Z,730.95
2017-01-06T07:12:48.012Z,730.99
2017-01-06T07:13:47.983Z,730.96
2017-01-06T07:14:47.947Z,731
2017-01-06T07:15:47.915Z,730.99
2017-01-06T07:16:47.886Z,730.97
2017-01-06T07:17:47.853Z,731.04
2017-01-06T07:18:47.818Z,731.12
2017-01-06T07:19:47.789Z,731.12
2017-01-06T07:20:47.757Z,731.08
2017-01-06T07:21:47.725Z,731.08
2017-01-06T07:22:47.692Z,731.16
2017-01-06T07:23:47.661Z,731.18
2017-01-06T07:24:47.629Z,731.22
2017-01-06T07:25:47.595Z,731.19
2017-01-06T07:26:47.563Z,731.22
2017-01-06T07:27:47.535Z,731.22
2017-01-06T07:28:47.499Z,731.21
2017-01-06T07:29:47.467Z,731.16
2017-01-06T07:30:47.436Z,731.16
2017-01-06T07:31:47.407Z,731.17
2017-01-06T07:32:47.375Z,731.2
2017-01-06T07:33:47.343Z,731.14
2017-01-06T07:34:47.313Z,731.26
2017-01-06T07:35:47.277Z,731.27
2017-01-06T07:36:47.249Z,731.25
2017-01-06T07:37:47.215Z,731.29
2017-01-06T07:38:47.187Z,731.27
2017-01-06T07:39:47.152Z,731.31
2017-01-06T07:40:47.122Z,731.29
2017-01-06T07:41:47.091Z,731.31
2017-01-06T07:42:47.061Z,731.36
2017-01-06T07:43:47.029Z,731.32
2017-01-06T07:44:47.002Z,731.32
2017-01-06T07:45:46.972Z,731.32
2017-01-06T07:46:46.938Z,731.34
2017-01-06T07:47:46.908Z,731.33
2017-01-06T07:48:46.878Z,731.34
2017-01-06T07:49:46.851Z,731.25
2017-01-06T07:50:46.820Z,731.28
2017-01-06T07:51:46.788Z,731.29
2017-01-06T07:52:46.758Z,731.34
2017-01-06T07:53:46.732Z,731.3
2017-01-06T07:54:46.698Z,731.36
2017-01-06T07:55:46.673Z,731.42
2017-01-06T07:56:46.644Z,731.42
2017-01-06T07:57:46.614Z,731.46
2017-01-06T07:58:46.581Z,731.44
2017-01-06T07:59:46.556Z,731.42
2017-01-06T08:00:46.527Z,731.35
2017-01-06T08:01:46.497Z,731.39
2017-01-06T08:02:46.465Z,731.42
2017-01-06T08:03:46.437Z,731.48
2017-01-06T08:04:46.408Z,731.53
2017-01-06T08:05:46.382Z,731.48
2017-01-06T08:06:46.351Z,731.5
2017-01-06T08:07:46.326Z,731.48
2017-01-06T08:08:46.296Z,731.53
2017-01-06T08:09:46.268Z,731.47
2017-01-06T08:10:46.240Z,731.53
2017-01-06T08:11:46.209Z,731.54
2017-01-06T08:12:46.180Z,731.58
2017-01-06T08:13:46.156Z,731.56
2017-01-06T08:14:46.125Z,731.57
2017-01-06T08:15:46.100Z,731.65
2017-01-06T08:16:46.071Z,731.66
2017-01-06T08:17:46.047Z,731.57
2017-01-06T08:18:46.017Z,731.6
2017-01-06T08:19:45.985Z,731.65
2017-01-06T08:20:45.961Z,731.63
2017-01-06T08:21:45.930Z,731.65
2017-01-06T08:22:45.906Z,731.63
2017-01-06T08:23:45.875Z,731.63
2017-01-06T08:24:45.848Z,731.66
2017-01-06T08:25:45.820Z,731.68
2017-01-06T08:26:45.794Z,731.74
2017-01-06T08:27:45.768Z,731.69
2017-01-06T08:28:45.741Z,731.74
2017-01-06T08:29:45.715Z,731.72
2017-01-06T08:30:45.684Z,731.67
2017-01-06T08:31:45.657Z,731.73
2017-01-06T08:32:45.633Z,731.75
2017-01-06T08:33:45.607Z,731.74
2017-01-06T08:34:45.579Z,731.77
2017-01-06T08:35:45.549Z,731.75
2017-01-06T08:36:45.522Z,731.75
2017-01-06T08:37:45.499Z,731.72
2017-01-06T08:38:45.468Z,731.75
2017-01-06T08:39:45.444Z,731.78
2017-01-06T08:40:45.414Z,731.73
2017-01-06T08:41:45.386Z,731.81
2017-01-06T08:42:45.359Z,731.9
2017-01-06T08:43:45.335Z,731.87
2017-01-06T08:44:45.305Z,731.91
2017-01-06T08:45:45.278Z,731.89
2017-01-06T08:46:45.255Z,731.81
2017-01-06T08:47:45.224Z,731.83
2017-01-06T08:48:45.201Z,731.85
2017-01-06T08:49:45.173Z,731.89
2017-01-06T08:50:45.144Z,731.91
2017-01-06T08:51:45.118Z,731.88
2017-01-06T08:52:45.091Z,731.82
2017-01-06T08:53:45.068Z,731.93
2017-01-06T08:54:45.044Z,731.82
2017-01-06T08:55:45.017Z,731.87
2017-01-06T08:56:44.989Z,731.92
2017-01-06T08:57:44.964Z,731.93
2017-01-06T08:58:44.938Z,731.92
2017-01-06T08:59:44.913Z,731.88
2017-01-06T09:00:44.887Z,731.92
2017-01-06T09:01:44.861Z,731.93
2017-01-06T09:02:44.832Z,731.92
2017-01-06T09:03:44.806Z,731.89
2017-01-06T09:04:44.784Z,731.93
2017-01-06T09:05:44.758Z,731.98
2017-01-06T09:06:44.732Z,732.02
2017-01-06T09:07:44.703Z,732.05
2017-01-06T09:08:44.681Z,732.05
2017-01-06T09:09:44.653Z,732.03
2017-01-06T09:10:44.626Z,732
2017-01-06T09:11:44.604Z,732.05
2017-01-06T09:12:44.577Z,732.04
2017-01-06T09:13:44.554Z,732.07
2017-01-06T09:14:44.528Z,732.04
2017-01-06T09:15:44.503Z,732.06
2017-01-06T09:16:44.478Z,732.09
2017-01-06T09:17:44.449Z,732.09
2017-01-06T09:18:44.423Z,732.12
2017-01-06T09:19:44.401Z,732.16
2017-01-06T09:20:44.373Z,732.16
2017-01-06T09:21:44.350Z,732.17
2017-01-06T09:22:44.322Z,732.15
2017-01-06T09:23:44.300Z,732.19
2017-01-06T09:24:44.273Z,732.21
2017-01-06T09:25:44.247Z,732.18
2017-01-06T09:26:44.225Z,732.18
2017-01-06T09:27:44.200Z,732.15
2017-01-06T09:28:44.172Z,732.1
2017-01-06T09:29:44.150Z,732.15
2017-01-06T09:30:44.121Z,732.15
2017-01-06T09:31:44.100Z,732.14
2017-01-06T09:32:44.074Z,732.08
2017-01-06T09:33:44.049Z,732.12
2017-01-06T09:34:44.020Z,732.11
2017-01-06T09:35:43.998Z,732.12
2017-01-06T09:36:43.968Z,732.05
2017-01-06T09:37:43.943Z,732.05
2017-01-06T09:38:43.918Z,732.13
2017-01-06T09:39:43.892Z,732.11
2017-01-06T09:40:43.866Z,732.12
2017-01-06T09:41:43.841Z,732.17
2017-01-06T09:42:43.819Z,732.13
2017-01-06T09:43:43.793Z,732.14
2017-01-06T09:44:43.765Z,732.16
2017-01-06T09:45:43.740Z,732.15
2017-01-06T09:46:43.716Z,732.17
2017-01-06T09:47:43.693Z,732.2
2017-01-06T09:48:43.668Z,732.18
2017-01-06T09:49:43.641Z,732.19
2017-01-06T09:50:43.619Z,732.17
2017-01-06T09:51:43.594Z,732.22
2017-01-06T09:52:43.569Z,732.22
2017-01-06T09:53:43.542Z,732.21
2017-01-06T09:54:43.520Z,732.23
2017-01-06T09:55:43.493Z,732.23
2017-01-06T09:56:43.472Z,732.24
2017-01-06T09:57:43.444Z,732.26
2017-01-06T09:58:43.422Z,732.27
2017-01-06T09:59:43.395Z,732.25
2017-01-06T10:00:43.374Z,732.28
2017-01-06T10:01:43.347Z,732.28
2017-01-06T10:02:43.322Z,732.27
2017-01-06T10:03:43.298Z,732.23
2017-01-06T10:04:43.273Z,732.17
2017-01-06T10:05:43.252Z,732.22
2017-01-06T10:06:43.224Z,732.24
2017-01-06T10:07:43.200Z,732.19
2017-01-06T10:08:43.177Z,732.25
2017-01-06T10:09:43.152Z,732.28
2017-01-06T10:10:43.128Z,732.36
2017-01-06T10:11:43.105Z,732.33
2017-01-06T10:12:43.085Z,732.32
2017-01-06T10:13:43.060Z,732.3
2017-01-06T10:14:43.035Z,732.27
2017-01-06T10:15:43.015Z,732.33
2017-01-06T10:16:42.987Z,732.25
2017-01-06T10:17:42.964Z,732.3
2017-01-06T10:18:42.944Z,732.25
2017-01-06T10:19:42.916Z,732.25
2017-01-06T10:20:42.897Z,732.28
2017-01-06T10:21:42.870Z,732.18
2017-01-06T10:22:42.846Z,732.24
2017-01-06T10:23:42.826Z,732.22
2017-01-06T10:24:42.802Z,732.26
2017-01-06T10:25:42.779Z,732.13
2017-01-06T10:26:42.751Z,732.2
2017-01-06T10:27:42.727Z,732.25
2017-01-06T10:28:42.706Z,732.25
2017-01-06T10:29:42.679Z,732.21
2017-01-06T10:30:42.655Z,732.17
2017-01-06T10:31:42.635Z,732.18
2017-01-06T10:32:42.609Z,732.17
2017-01-06T10:33:42.586Z,732.21
2017-01-06T10:34:42.561Z,732.14
2017-01-06T10:35:42.534Z,732.14
2017-01-06T10:36:42.510Z,732.16
2017-01-06T10:37:42.487Z,732.1
2017-01-06T10:38:42.464Z,732.12
2017-01-06T10:39:42.440Z,732.08
2017-01-06T10:40:42.413Z,732.06
2017-01-06T10:41:42.392Z,732.14
2017-01-06T10:42:42.366Z,732.11
2017-01-06T10:43:42.342Z,732.12
2017-01-06T10:44:42.317Z,732.11
2017-01-06T10:45:42.288Z,732.1
2017-01-06T10:46:42.263Z,732.14
2017-01-06T10:47:42.241Z,732.1
2017-01-06T10:48:42.214Z,732.15
2017-01-06T10:49:42.192Z,732.1
2017-01-06T10:50:42.164Z,732.09
2017-01-06T10:51:42.140Z,732.11
2017-01-06T10:52:42.116Z,732.07
2017-01-06T10:53:42.091Z,732.12
2017-01-06T10:54:42.067Z,732.13
2017-01-06T10:55:42.047Z,732.11
2017-01-06T10:56:42.019Z,732.09
2017-01-06T10:57:41.999Z,732.09
2017-01-06T10:58:41.975Z,732.1
2017-01-06T10:59:41.949Z,732.09
2017-01-06T11:00:41.924Z,732.08
2017-01-06T11:01:41.904Z,732.06
2017-01-06T11:02:41.881Z,732.06
2017-01-06T11:03:41.857Z,732.08
2017-01-06T11:04:41.830Z,732.07
2017-01-06T11:05:41.810Z,732.05
2017-01-06T11:06:41.784Z,732.03
2017-01-06T11:07:41.759Z,732.09
2017-01-06T11:08:41.739Z,732.11
2017-01-06T11:09:41.712Z,732.08
2017-01-06T11:10:41.690Z,732.03
2017-01-06T11:11:41.666Z,731.98
2017-01-06T11:12:41.645Z,731.96
2017-01-06T11:13:41.619Z,732.05
2017-01-06T11:14:41.596Z,732
2017-01-06T11:15:41.573Z,731.98
2017-01-06T11:16:41.553Z,732.05
2017-01-06T11:17:41.530Z,732.03
2017-01-06T11:18:41.503Z,731.98
2017-01-06T11:19:41.480Z,732.03
2017-01-06T11:20:41.457Z,732
2017-01-06T11:21:41.437Z,731.99
2017-01-06T11:22:41.410Z,731.99
2017-01-06T11:23:41.391Z,731.95
2017-01-06T11:24:41.367Z,731.91
2017-01-06T11:25:41.344Z,731.95
2017-01-06T11:26:41.318Z,731.99
2017-01-06T11:27:41.298Z,731.96
2017-01-06T11:28:41.276Z,731.9
2017-01-06T11:29:41.249Z,731.9
2017-01-06T11:30:41.226Z,731.92
2017-01-06T11:31:41.207Z,731.88
2017-01-06T11:32:41.185Z,731.87
2017-01-06T11:33:41.158Z,731.84
2017-01-06T11:34:41.139Z,731.85
2017-01-06T11:35:41.113Z,731.84
2017-01-06T11:36:41.091Z,731.83
2017-01-06T11:37:41.068Z,731.85
2017-01-06T11:38:41.046Z,731.78
2017-01-06T11:39:41.024Z,731.76
2017-01-06T11:40:41.004Z,731.86
2017-01-06T11:41:40.982Z,731.86
2017-01-06T11:42:40.960Z,731.9
2017-01-06T11:43:40.938Z,731.82
2017-01-06T11:44:40.912Z,731.84
2017-01-06T11:45:40.889Z,731.84
2017-01-06T11:46:40.870Z,731.8
2017-01-06T11:47:40.848Z,731.78
2017-01-06T11:48:40.824Z,731.77
2017-01-06T11:49:40.806Z,731.76
2017-01-06T11:50:40.780Z,731.77
2017-01-06T11:51:40.756Z,731.8
2017-01-06T11:52:40.734Z,731.79
2017-01-06T11:53:40.709Z,731.85
2017-01-06T11:54:40.690Z,731.82
2017-01-06T11:55:40.663Z,731.79
2017-01-06T11:56:40.640Z,731.79
2017-01-06T11:57:40.618Z,731.78
2017-01-06T11:58:40.595Z,731.73
2017-01-06T11:59:40.574Z,731.74
2017-01-06T12:00:40.548Z,731.77
2017-01-06T12:01:40.526Z,731.73
2017-01-06T12:02:40.504Z,731.7
2017-01-06T12:03:40.478Z,731.71
2017-01-06T12:04:40.455Z,731.74
2017-01-06T12:05:40.436Z,731.69
2017-01-06T12:06:40.411Z,731.71
2017-01-06T12:07:40.388Z,731.62
2017-01-06T12:08:40.362Z,731.71
2017-01-06T12:09:40.342Z,731.7
2017-01-06T12:10:40.318Z,731.63
2017-01-06T12:11:40.295Z,731.65
2017-01-06T12:12:40.272Z,731.62
2017-01-06T12:13:40.245Z,731.62
2017-01-06T12:14:40.222Z,731.65
2017-01-06T12:15:40.198Z,731.63
2017-01-06T12:16:40.179Z,731.63
2017-01-06T12:17:40.154Z,731.63
2017-01-06T12:18:40.132Z,731.62
2017-01-06T12:19:40.108Z,731.55
2017-01-06T12:20:40.085Z,731.6
2017-01-06T12:21:40.059Z,731.6
2017-01-06T12:22:40.037Z,731.56
2017-01-06T12:23:40.015Z,731.6
2017-01-06T12:24:39.994Z,731.62
2017-01-06T12:25:39.969Z,731.58
2017-01-06T12:26:39.949Z,731.62
2017-01-06T12:27:39.927Z,731.64
2017-01-06T12:28:39.904Z,731.6
2017-01-06T12:29:39.882Z,731.59
2017-01-06T12:30:39.856Z,731.63
2017-01-06T12:31:39.836Z,731.64
2017-01-06T12:32:39.810Z,731.63